createdAt,value
2019-05-10T00:01:13.556Z,12.03
2019-05-10T00:04:01.186Z,10.40
2019-05-10T00:06:48.865Z,15.67
2019-05-10T00:09:18.181Z,11.27
2019-05-10T00:12:05.956Z,12.27
2019-05-10T00:15:00.905Z,12.50
2019-05-10T00:17:31.047Z,14.83
2019-05-10T00:20:01.145Z,12.47
2019-05-10T00:22:33.784Z,13.27
2019-05-10T00:25:05.157Z,13.43
2019-05-10T00:27:35.755Z,12.80
2019-05-10T00:30:06.360Z,12.33
2019-05-10T00:32:36.461Z,12.93
2019-05-10T00:35:06.751Z,12.27
2019-05-10T00:37:36.912Z,12.10
2019-05-10T00:40:07.443Z,11.37
2019-05-10T00:42:37.542Z,11.37
2019-05-10T00:45:08.000Z,11.53
2019-05-10T00:47:38.055Z,10.83
2019-05-10T00:50:08.912Z,11.33
2019-05-10T00:52:39.018Z,10.50
2019-05-10T00:55:18.339Z,10.70
2019-05-10T00:57:41.271Z,12.83
2019-05-10T01:00:11.662Z,9.77
2019-05-10T01:02:41.773Z,11.27
2019-05-10T01:05:14.687Z,12.80
2019-05-10T01:07:44.769Z,9.57
2019-05-10T01:10:17.440Z,15.30
2019-05-10T01:12:47.725Z,14.13
2019-05-10T01:15:18.009Z,10.67
2019-05-10T01:17:50.362Z,9.77
2019-05-10T01:20:20.472Z,11.07
2019-05-10T01:22:50.507Z,12.47
2019-05-10T01:25:34.116Z,15.40
2019-05-10T01:27:52.270Z,14.57
2019-05-10T01:30:22.531Z,11.97
2019-05-10T01:32:52.756Z,14.10
2019-05-10T01:35:22.986Z,14.17
2019-05-10T01:37:53.000Z,13.20
2019-05-10T01:40:23.159Z,15.00
2019-05-10T01:42:53.197Z,14.80
2019-05-10T01:45:23.271Z,13.67
2019-05-10T01:47:53.285Z,13.63
2019-05-10T01:50:23.357Z,12.20
2019-05-10T01:52:53.530Z,14.10
2019-05-10T01:55:23.578Z,14.07
2019-05-10T01:57:53.615Z,13.93
2019-05-10T02:00:24.033Z,13.30
2019-05-10T02:02:54.060Z,12.67
2019-05-10T02:05:24.107Z,11.40
2019-05-10T02:07:54.474Z,12.80
2019-05-10T02:10:24.530Z,14.30
2019-05-10T02:12:54.600Z,14.63
2019-05-10T02:15:24.765Z,10.43
2019-05-10T02:17:54.802Z,12.53
2019-05-10T02:20:24.881Z,14.83
2019-05-10T02:22:54.990Z,12.93
2019-05-10T02:25:25.107Z,15.53
2019-05-10T02:27:55.289Z,14.53
2019-05-10T02:30:44.424Z,14.60
2019-05-10T02:33:14.464Z,14.70
2019-05-10T02:35:44.619Z,17.27
2019-05-10T02:38:14.693Z,13.83
2019-05-10T02:40:45.450Z,18.17
2019-05-10T02:43:15.557Z,17.37
2019-05-10T02:45:46.055Z,12.47
2019-05-10T02:48:16.125Z,16.23
2019-05-10T02:50:47.875Z,16.03
2019-05-10T02:53:18.298Z,19.60
2019-05-10T02:55:49.470Z,15.97
2019-05-10T02:58:19.721Z,16.00
2019-05-10T03:00:51.832Z,15.67
2019-05-10T03:03:24.665Z,15.23
2019-05-10T03:05:56.272Z,19.10
2019-05-10T03:08:27.817Z,16.83
2019-05-10T03:11:00.112Z,15.67
2019-05-10T03:13:31.161Z,15.37
2019-05-10T03:16:05.124Z,17.27
2019-05-10T03:18:35.442Z,18.83
2019-05-10T03:21:11.826Z,16.90
2019-05-10T03:23:42.050Z,19.93
2019-05-10T03:26:12.546Z,22.57
2019-05-10T03:28:44.555Z,21.53
2019-05-10T03:31:14.956Z,23.60
2019-05-10T03:33:45.093Z,23.93
2019-05-10T03:36:34.184Z,29.17
2019-05-10T03:39:08.137Z,28.87
2019-05-10T03:41:38.244Z,24.40
2019-05-10T03:44:08.419Z,28.77
2019-05-10T03:46:38.567Z,29.53
2019-05-10T03:49:08.688Z,32.07
2019-05-10T03:51:38.750Z,34.67
2019-05-10T03:54:08.866Z,34.93
2019-05-10T03:56:41.261Z,37.17
2019-05-10T03:59:11.373Z,37.57
2019-05-10T04:01:41.501Z,38.37
2019-05-10T04:04:11.612Z,36.97
2019-05-10T04:06:41.686Z,35.83
2019-05-10T04:09:11.805Z,32.33
2019-05-10T04:11:42.264Z,40.83
2019-05-10T04:14:12.368Z,48.87
2019-05-10T04:16:42.598Z,41.87
2019-05-10T04:19:12.636Z,43.07
2019-05-10T04:21:44.237Z,42.20
2019-05-10T04:24:14.381Z,39.37
2019-05-10T04:26:44.481Z,36.73
2019-05-10T04:29:14.590Z,37.77
2019-05-10T04:31:44.734Z,35.93
2019-05-10T04:34:14.811Z,37.80
2019-05-10T04:36:45.094Z,32.87
2019-05-10T04:39:15.294Z,33.37
2019-05-10T04:41:45.379Z,35.20
2019-05-10T04:44:15.530Z,33.00
2019-05-10T04:46:45.729Z,38.20
2019-05-10T04:49:15.871Z,34.13
2019-05-10T04:51:46.256Z,35.43
2019-05-10T04:54:16.300Z,31.83
2019-05-10T04:56:47.158Z,36.00
2019-05-10T04:59:17.295Z,37.00
2019-05-10T05:01:48.195Z,33.73
2019-05-10T05:04:18.322Z,37.17
2019-05-10T05:06:48.429Z,31.40
2019-05-10T05:09:21.661Z,27.77
2019-05-10T05:11:51.845Z,32.43
2019-05-10T05:14:21.921Z,29.17
2019-05-10T05:16:52.056Z,30.57
2019-05-10T05:19:22.127Z,23.97
2019-05-10T05:21:52.352Z,25.83
2019-05-10T05:24:24.346Z,28.70
2019-05-10T05:26:54.554Z,25.40
2019-05-10T05:29:24.680Z,26.20
2019-05-10T05:32:01.435Z,22.07
2019-05-10T05:34:28.296Z,24.67
2019-05-10T05:36:58.641Z,19.63
2019-05-10T05:39:28.698Z,18.93
2019-05-10T05:41:58.961Z,20.30
2019-05-10T05:44:29.092Z,13.93
2019-05-10T05:46:59.188Z,18.27
2019-05-10T05:49:29.263Z,15.70
2019-05-10T05:51:59.788Z,16.37
2019-05-10T05:54:31.856Z,17.03
2019-05-10T05:57:02.004Z,16.97
2019-05-10T05:59:32.113Z,17.60
2019-05-10T06:02:07.634Z,14.90
2019-05-10T06:04:34.030Z,16.30
2019-05-10T06:07:04.188Z,14.53
2019-05-10T06:09:37.960Z,15.73
2019-05-10T06:12:07.521Z,13.80
2019-05-10T06:14:43.358Z,13.53
2019-05-10T06:17:09.759Z,15.17
2019-05-10T06:19:39.889Z,17.23
2019-05-10T06:22:09.964Z,21.67
2019-05-10T06:24:40.142Z,21.30
2019-05-10T06:27:10.363Z,20.83
2019-05-10T06:29:43.031Z,24.60
2019-05-10T06:32:12.231Z,24.03
2019-05-10T06:34:42.460Z,27.37
2019-05-10T06:37:13.399Z,27.13
2019-05-10T06:39:43.558Z,25.73
2019-05-10T06:42:13.640Z,26.63
2019-05-10T06:44:43.766Z,26.30
2019-05-10T06:47:13.826Z,29.97
2019-05-10T06:49:50.618Z,28.73
2019-05-10T06:52:16.391Z,30.20
2019-05-10T06:54:46.854Z,31.97
2019-05-10T06:57:17.954Z,25.23
2019-05-10T06:59:48.824Z,26.23
2019-05-10T07:02:20.097Z,22.87
2019-05-10T07:04:51.050Z,27.67
2019-05-10T07:07:42.616Z,22.90
2019-05-10T07:10:09.972Z,26.17
2019-05-10T07:12:25.264Z,25.23
2019-05-10T07:14:57.891Z,23.07
2019-05-10T07:17:27.300Z,24.33
2019-05-10T07:19:57.448Z,23.40
2019-05-10T07:22:29.055Z,23.57
2019-05-10T07:25:04.396Z,23.80
2019-05-10T07:27:36.744Z,21.67
2019-05-10T07:30:03.443Z,21.63
2019-05-10T07:32:33.818Z,25.33
2019-05-10T07:35:04.359Z,25.40
2019-05-10T07:37:34.701Z,21.87
2019-05-10T07:40:05.918Z,22.90
2019-05-10T07:42:39.738Z,21.43
2019-05-10T07:45:08.060Z,24.07
2019-05-10T07:47:38.123Z,22.93
2019-05-10T07:50:09.471Z,22.77
2019-05-10T07:52:43.339Z,21.03
2019-05-10T07:55:12.264Z,23.67
2019-05-10T07:57:42.477Z,21.97
2019-05-10T08:00:13.055Z,23.10
2019-05-10T08:02:44.437Z,19.63
2019-05-10T08:05:15.523Z,19.17
2019-05-10T08:07:45.858Z,19.83
2019-05-10T08:10:16.187Z,20.40
2019-05-10T08:12:48.293Z,23.90
2019-05-10T08:15:19.534Z,20.20
2019-05-10T08:17:50.991Z,17.80
2019-05-10T08:20:38.113Z,17.33
2019-05-10T08:22:54.164Z,16.67
2019-05-10T08:25:29.061Z,16.53
2019-05-10T08:27:56.089Z,19.47
2019-05-10T08:30:42.506Z,15.90
2019-05-10T08:33:13.500Z,14.27
2019-05-10T08:35:45.945Z,15.67
2019-05-10T08:38:13.783Z,14.33
2019-05-10T08:40:43.908Z,13.30
2019-05-10T08:43:16.850Z,13.90
2019-05-10T08:45:49.439Z,12.87
2019-05-10T08:48:17.798Z,12.80
2019-05-10T08:50:54.328Z,14.50
2019-05-10T08:53:19.726Z,13.47
2019-05-10T08:55:52.295Z,11.80
2019-05-10T08:58:31.561Z,12.90
2019-05-10T09:01:11.104Z,12.17
2019-05-10T09:03:25.597Z,13.93
2019-05-10T09:05:55.687Z,13.03
2019-05-10T09:08:29.626Z,11.70
2019-05-10T09:10:57.579Z,13.33
2019-05-10T09:13:28.672Z,12.43
2019-05-10T09:16:02.235Z,14.40
2019-05-10T09:18:33.101Z,14.33
2019-05-10T09:21:08.742Z,11.90
2019-05-10T09:23:37.227Z,10.77
2019-05-10T09:26:10.452Z,11.53
2019-05-10T09:28:39.165Z,11.43
2019-05-10T09:31:18.648Z,11.10
2019-05-10T09:33:49.228Z,11.07
2019-05-10T09:36:15.022Z,5.17
2019-05-10T09:38:46.296Z,4.40
2019-05-10T09:41:18.669Z,3.63
2019-05-10T09:43:50.540Z,3.70
2019-05-10T09:46:22.849Z,3.30
2019-05-10T09:48:54.559Z,3.03
2019-05-10T09:51:28.685Z,2.80
2019-05-10T09:53:57.637Z,3.43
2019-05-10T09:56:32.843Z,3.33
2019-05-10T09:59:02.560Z,3.70
2019-05-10T10:01:32.839Z,2.40
2019-05-10T10:04:04.736Z,3.80
2019-05-10T10:06:36.779Z,2.77
2019-05-10T10:09:10.817Z,3.10
2019-05-10T10:11:40.371Z,3.03
2019-05-10T10:14:10.704Z,3.40
2019-05-10T10:16:40.794Z,4.37
2019-05-10T10:19:10.869Z,4.90
2019-05-10T10:21:40.975Z,4.40
2019-05-10T10:24:15.510Z,5.40
2019-05-10T10:26:42.963Z,5.20
2019-05-10T10:29:13.106Z,6.07
2019-05-10T10:31:51.379Z,6.30
2019-05-10T10:34:17.249Z,5.83
2019-05-10T10:36:47.646Z,4.83
2019-05-10T10:39:22.844Z,5.07
2019-05-10T10:41:52.115Z,5.43
2019-05-10T10:44:21.351Z,6.43
2019-05-10T10:46:51.476Z,6.43
2019-05-10T10:49:23.208Z,6.23
2019-05-10T10:51:53.556Z,6.20
2019-05-10T10:54:27.956Z,7.23
2019-05-10T10:56:59.184Z,7.50
2019-05-10T10:59:27.451Z,6.80
2019-05-10T11:02:27.501Z,6.13
2019-05-10T11:04:29.271Z,6.97
2019-05-10T11:07:10.238Z,9.23
2019-05-10T11:09:44.543Z,7.10
2019-05-10T11:12:21.045Z,8.17
2019-05-10T11:14:48.023Z,8.90
2019-05-10T11:17:18.101Z,9.90
2019-05-10T11:19:48.246Z,10.57
2019-05-10T11:22:18.296Z,9.60
2019-05-10T11:24:51.736Z,9.97
2019-05-10T11:27:20.451Z,9.87
2019-05-10T11:29:54.884Z,10.20
2019-05-10T11:32:22.702Z,10.10
2019-05-10T11:34:52.856Z,9.70
2019-05-10T11:37:30.911Z,8.43
2019-05-10T11:39:55.127Z,9.10
2019-05-10T11:42:28.119Z,10.07
2019-05-10T11:44:57.660Z,9.03
2019-05-10T11:47:27.936Z,9.00
2019-05-10T11:50:10.649Z,11.10
2019-05-10T11:52:41.019Z,10.63
2019-05-10T11:55:12.386Z,11.53
2019-05-10T11:57:44.548Z,9.53
2019-05-10T12:05:26.424Z,7.13
2019-05-10T12:07:54.867Z,6.97
2019-05-10T12:10:25.921Z,8.33
2019-05-10T12:13:08.736Z,7.60
2019-05-10T12:15:31.477Z,10.47
2019-05-10T12:18:04.306Z,9.57
2019-05-10T12:23:03.755Z,9.87
2019-05-10T12:26:05.557Z,9.30
2019-05-10T12:26:18.021Z,8.77
2019-05-10T12:26:20.084Z,10.40
2019-05-10T12:26:49.078Z,8.90
2019-05-10T12:28:06.521Z,9.07
2019-05-10T12:30:37.258Z,9.17
2019-05-10T12:33:09.859Z,9.87
2019-05-10T12:35:44.544Z,10.87
2019-05-10T12:38:11.361Z,10.70
2019-05-10T12:40:45.473Z,10.10
2019-05-10T12:43:13.340Z,10.43
2019-05-10T12:45:43.513Z,10.57
2019-05-10T12:48:15.514Z,10.80
2019-05-10T12:50:45.840Z,11.70
2019-05-10T12:53:18.566Z,11.33
2019-05-10T12:55:48.262Z,11.67
2019-05-10T12:58:18.459Z,11.37
2019-05-10T13:00:52.706Z,10.83
2019-05-10T13:03:25.141Z,12.33
2019-05-10T13:05:53.365Z,13.00
2019-05-10T13:08:23.830Z,11.90
2019-05-10T13:10:53.964Z,12.77
2019-05-10T13:13:29.402Z,13.23
2019-05-10T13:15:56.276Z,13.87
2019-05-10T13:18:48.194Z,13.77
2019-05-10T13:20:58.092Z,14.90
2019-05-10T13:23:28.141Z,14.87
2019-05-10T13:25:58.329Z,13.93
2019-05-10T13:28:28.501Z,14.00
2019-05-10T13:30:59.775Z,12.47
2019-05-10T13:33:40.673Z,13.67
2019-05-10T13:36:02.234Z,14.13
2019-05-10T13:38:37.032Z,13.53
2019-05-10T13:41:06.682Z,13.63
2019-05-10T13:43:36.888Z,13.47
2019-05-10T13:46:07.010Z,13.57
2019-05-10T13:48:37.065Z,13.40
2019-05-10T13:51:07.225Z,14.60
2019-05-10T13:53:37.346Z,13.90
2019-05-10T13:56:07.418Z,13.70
2019-05-10T13:58:37.642Z,13.17
2019-05-10T14:01:13.174Z,12.57
2019-05-10T14:03:45.205Z,11.63
2019-05-10T14:06:11.350Z,12.37
2019-05-10T14:08:42.760Z,13.07
2019-05-10T14:11:15.169Z,13.67
2019-05-10T14:13:45.215Z,11.57
2019-05-10T14:16:19.591Z,12.40
2019-05-10T14:18:47.078Z,12.03
2019-05-10T14:21:17.313Z,11.30
2019-05-10T14:23:47.516Z,11.73
2019-05-10T14:26:18.288Z,10.53
2019-05-10T14:28:53.127Z,11.20
2019-05-10T14:31:21.016Z,10.60
2019-05-10T14:34:14.123Z,10.40
2019-05-10T14:36:22.986Z,11.37
2019-05-10T14:38:54.170Z,10.30
2019-05-10T14:41:24.806Z,10.93
2019-05-10T14:43:56.723Z,11.07
2019-05-10T14:46:26.827Z,10.40
2019-05-10T14:48:57.209Z,9.70
2019-05-10T14:51:44.159Z,9.80
2019-05-10T14:54:06.818Z,10.17
2019-05-10T14:56:30.857Z,11.80
2019-05-10T14:59:00.998Z,10.60
2019-05-10T15:01:36.994Z,10.77
2019-05-10T15:04:03.933Z,10.47
2019-05-10T15:06:37.018Z,10.30
2019-05-10T15:09:20.454Z,11.37
2019-05-10T15:11:40.491Z,10.87
2019-05-10T15:14:10.656Z,10.63
2019-05-10T15:16:41.195Z,11.87
2019-05-10T15:19:11.334Z,10.30
2019-05-10T15:21:41.600Z,10.37
2019-05-10T15:24:11.927Z,10.83
2019-05-10T15:26:43.729Z,9.87
2019-05-10T15:29:14.974Z,10.47
2019-05-10T15:31:47.550Z,8.87
2019-05-10T15:34:17.964Z,9.80
2019-05-10T15:36:48.268Z,9.80
2019-05-10T15:39:23.109Z,9.37
2019-05-10T15:41:53.743Z,8.33
2019-05-10T15:44:30.139Z,9.97
2019-05-10T15:46:55.872Z,10.30
2019-05-10T15:49:25.919Z,11.03
2019-05-10T15:52:15.198Z,9.43
2019-05-10T15:54:27.997Z,9.00
2019-05-10T15:56:58.072Z,9.53
2019-05-10T15:59:28.680Z,10.10
2019-05-10T16:01:59.094Z,9.70
2019-05-10T16:04:29.345Z,8.73
2019-05-10T16:06:59.434Z,8.80
2019-05-10T16:09:29.594Z,8.33
2019-05-10T16:12:01.905Z,9.10
2019-05-10T16:14:33.130Z,7.73
2019-05-10T16:17:03.690Z,9.27
2019-05-10T16:19:33.747Z,10.07
2019-05-10T16:22:03.874Z,9.33
2019-05-10T16:24:34.145Z,10.07
2019-05-10T16:27:04.327Z,10.40
2019-05-10T16:29:39.821Z,9.70
2019-05-10T16:32:07.769Z,9.53
2019-05-10T16:34:38.086Z,10.87
2019-05-10T16:37:08.163Z,11.70
2019-05-10T16:39:38.360Z,9.93
2019-05-10T16:42:08.708Z,10.80
2019-05-10T16:44:39.451Z,11.70
2019-05-10T16:47:09.523Z,11.90
2019-05-10T16:49:39.644Z,10.83
2019-05-10T16:52:09.881Z,11.17
2019-05-10T16:54:40.008Z,10.27
2019-05-10T16:57:10.391Z,11.87
2019-05-10T16:59:40.530Z,10.90
2019-05-10T17:02:11.990Z,10.27
2019-05-10T17:04:42.327Z,9.77
2019-05-10T17:07:18.497Z,10.60
2019-05-10T17:09:44.371Z,9.23
2019-05-10T17:12:14.653Z,9.67
2019-05-10T17:14:45.006Z,10.27
2019-05-10T17:17:15.169Z,9.60
2019-05-10T17:19:45.643Z,8.90
2019-05-10T17:22:15.837Z,9.30
2019-05-10T17:24:46.074Z,8.60
2019-05-10T17:27:16.466Z,9.23
2019-05-10T17:29:49.744Z,8.90
2019-05-10T17:32:24.560Z,8.50
2019-05-10T17:34:53.087Z,10.83
2019-05-10T17:37:24.075Z,10.13
2019-05-10T17:39:54.283Z,11.00
2019-05-10T17:42:25.042Z,10.03
2019-05-10T17:45:01.509Z,9.83
2019-05-10T17:47:31.946Z,9.87
2019-05-10T17:49:58.922Z,10.33
2019-05-10T17:52:29.184Z,9.60
2019-05-10T17:54:59.265Z,10.67
2019-05-10T17:57:29.824Z,10.17
2019-05-10T18:00:00.969Z,11.00
2019-05-10T18:02:31.139Z,11.03
2019-05-10T18:05:06.364Z,10.80
2019-05-10T18:07:33.051Z,10.33
2019-05-10T18:10:03.171Z,10.90
2019-05-10T18:12:33.250Z,10.50
2019-05-10T18:15:05.033Z,11.30
2019-05-10T18:17:35.365Z,10.80
2019-05-10T18:20:06.036Z,10.50
2019-05-10T18:22:42.801Z,9.90
2019-05-10T18:25:19.562Z,9.27
2019-05-10T18:27:39.727Z,11.17
2019-05-10T18:30:10.154Z,10.60
2019-05-10T18:32:40.552Z,11.70
2019-05-10T18:35:14.923Z,11.57
2019-05-10T18:37:43.771Z,10.50
2019-05-10T18:40:14.480Z,11.53
2019-05-10T18:42:44.694Z,12.27
2019-05-10T18:45:15.029Z,11.00
2019-05-10T18:47:45.215Z,12.37
2019-05-10T18:50:15.439Z,11.60
2019-05-10T18:52:45.525Z,11.87
2019-05-10T18:55:15.716Z,11.63
2019-05-10T18:57:50.768Z,12.33
2019-05-10T19:00:23.139Z,11.63
2019-05-10T19:02:55.314Z,12.53
2019-05-10T19:05:25.015Z,15.37
2019-05-10T19:08:03.092Z,16.63
2019-05-10T19:10:27.212Z,17.47
2019-05-10T19:13:01.161Z,15.90
2019-05-10T19:15:29.277Z,11.87
2019-05-10T19:17:59.378Z,13.30
2019-05-10T19:20:29.532Z,12.97
2019-05-10T19:22:59.629Z,12.63
2019-05-10T19:25:29.986Z,12.70
2019-05-10T19:28:01.287Z,13.63
2019-05-10T19:30:32.008Z,13.07
2019-05-10T19:33:02.235Z,12.47
2019-05-10T19:35:35.788Z,14.07
2019-05-10T19:38:04.846Z,13.50
2019-05-10T19:40:35.238Z,13.87
2019-05-10T19:43:05.585Z,14.43
2019-05-10T19:45:38.884Z,13.30
2019-05-10T19:48:09.031Z,13.20
2019-05-10T19:50:41.154Z,12.37
2019-05-10T19:53:11.286Z,13.00
2019-05-10T19:55:41.421Z,14.03
2019-05-10T19:58:11.784Z,15.53
2019-05-10T20:00:42.101Z,14.90
2019-05-10T20:03:14.154Z,14.77
2019-05-10T20:05:44.226Z,16.23
2019-05-10T20:08:14.621Z,15.23
2019-05-10T20:10:45.529Z,14.73
2019-05-10T20:13:15.787Z,14.13
2019-05-10T20:15:46.031Z,15.00
2019-05-10T20:18:16.445Z,15.83
2019-05-10T20:20:46.641Z,15.93
2019-05-10T20:23:16.826Z,16.10
2019-05-10T20:25:47.275Z,15.47
2019-05-10T20:28:17.631Z,15.70
2019-05-10T20:30:47.804Z,15.80
2019-05-10T20:33:17.974Z,16.17
2019-05-10T20:35:48.120Z,17.33
2019-05-10T20:38:18.219Z,16.43
2019-05-10T20:40:48.372Z,16.60
2019-05-10T20:43:18.678Z,17.33
2019-05-10T20:45:50.365Z,17.70
2019-05-10T20:48:20.479Z,17.27
2019-05-10T20:50:50.778Z,16.63
2019-05-10T20:53:20.979Z,16.60
2019-05-10T20:55:51.530Z,15.93
2019-05-10T20:58:21.709Z,16.03
2019-05-10T21:00:51.775Z,15.90
2019-05-10T21:03:23.613Z,19.97
2019-05-10T21:05:53.747Z,17.63
2019-05-10T21:08:24.046Z,17.00
2019-05-10T21:10:54.209Z,15.70
2019-05-10T21:13:26.138Z,15.33
2019-05-10T21:15:56.207Z,14.87
2019-05-10T21:18:26.492Z,14.87
2019-05-10T21:20:56.736Z,16.10
2019-05-10T21:23:27.027Z,15.40
2019-05-10T21:25:58.281Z,14.63
2019-05-10T21:28:28.745Z,16.40
2019-05-10T21:30:58.872Z,15.87
2019-05-10T21:33:29.024Z,16.20
2019-05-10T21:35:59.253Z,16.07
2019-05-10T21:38:33.106Z,15.80
2019-05-10T21:41:01.161Z,16.03
2019-05-10T21:43:31.314Z,15.73
2019-05-10T21:46:01.459Z,16.60
2019-05-10T21:48:31.782Z,17.17
2019-05-10T21:51:02.068Z,18.10
2019-05-10T21:53:32.480Z,17.83
2019-05-10T21:56:03.399Z,17.30
2019-05-10T21:58:33.458Z,16.53
2019-05-10T22:01:03.808Z,16.93
2019-05-10T22:03:33.893Z,18.70
2019-05-10T22:06:04.099Z,17.77
2019-05-10T22:08:48.346Z,18.03
2019-05-10T22:11:05.979Z,17.43
2019-05-10T22:13:37.644Z,17.87
2019-05-10T22:16:07.759Z,17.93
2019-05-10T22:18:38.494Z,17.93
2019-05-10T22:21:08.530Z,16.77
2019-05-10T22:23:38.722Z,18.90
2019-05-10T22:26:09.391Z,17.77
2019-05-10T22:28:39.823Z,17.80
2019-05-10T22:31:09.955Z,19.40
2019-05-10T22:33:40.197Z,18.70
2019-05-10T22:36:10.239Z,18.87
2019-05-10T22:38:40.551Z,18.83
2019-05-10T22:41:10.581Z,18.67
2019-05-10T22:43:40.717Z,17.97
2019-05-10T22:46:10.760Z,19.07
2019-05-10T22:48:40.892Z,19.00
2019-05-10T22:51:10.965Z,18.40
2019-05-10T22:53:41.158Z,19.07
2019-05-10T22:56:11.397Z,18.53
2019-05-10T22:58:41.618Z,19.20
2019-05-10T23:01:11.912Z,19.00
2019-05-10T23:03:42.011Z,19.27
2019-05-10T23:06:12.205Z,18.53
2019-05-10T23:08:42.343Z,19.27
2019-05-10T23:11:12.517Z,19.97
2019-05-10T23:13:42.912Z,20.60
2019-05-10T23:16:13.021Z,19.70
2019-05-10T23:18:43.174Z,19.73
2019-05-10T23:21:13.306Z,20.10
2019-05-10T23:23:43.462Z,20.30
2019-05-10T23:26:13.483Z,18.53
2019-05-10T23:28:43.712Z,19.43
2019-05-10T23:31:13.846Z,19.27
2019-05-10T23:33:43.980Z,20.13
2019-05-10T23:36:14.077Z,20.73
2019-05-10T23:38:44.488Z,20.80
2019-05-10T23:41:14.520Z,21.03
2019-05-10T23:43:44.653Z,19.87
2019-05-10T23:46:14.718Z,20.10
2019-05-10T23:48:44.867Z,19.80
2019-05-10T23:51:15.760Z,19.77
2019-05-10T23:53:45.981Z,19.90
2019-05-10T23:56:16.118Z,21.80
2019-05-10T23:58:49.560Z,21.03
